Littleton, New Hampshire
Current Conditions -  °F | °C
As of 11:52 PM on Monday 22 Dec 2014 (Local Time) from KHIE Reporting Station
Overcast Overcast  
Wind Chill: 26°   Ceiling: 4100
Heat Index: 31°   Visibility: 10mi
Dew Point: 26°   Wind: 5mph
Humidity: 82%   Direction: 60°ENE
Pressure: 30.26"   Gusts: NA
Location:  44.31°N, 71.77°W
Report Text: KHIE 230452Z AUTO 06004KT 10SM OVC041 M01/M03 A3026 RMK AO2 SLP262 T10061033 400171039
Loading
Personal Weather Stations






























Interactive Weather Map New forecast layout! Learn more

10-Day Weather Forecast

Advertisements
Track Severe Weather on mobile